Time,TemperatureF,DewpointF,PressureIn,WindDirection,WindDirectionDegrees,WindSpeedMPH,WindSpeedGustMPH,Humidity,HourlyPrecipIn,Conditions,Clouds,dailyrainin,SoftwareType,DateUTC
2013-01-15 00:09:00,24.8,22.5,30.29,NE,42,0.0,0.0,91,0.00,CLR,SKC,0.00,WeatherDisplay:10.37,2013-01-15 05:09:00,
2013-01-15 00:19:00,24.3,22.0,30.29,NE,42,0.0,0.0,91,0.00,CLR,SKC,0.00,WeatherDisplay:10.37,2013-01-15 05:19:00,
2013-01-15 00:29:00,24.2,22.2,30.30,NE,42,0.0,0.0,92,0.00,CLR,SKC,0.00,WeatherDisplay:10.37,2013-01-15 05:29:00,
2013-01-15 00:40:00,24.1,21.9,30.30,NE,42,0.0,0.0,91,0.00,CLR,SKC,0.00,WeatherDisplay:10.37,2013-01-15 05:40:00,
2013-01-15 00:50:00,23.7,21.7,30.30,NE,42,0.0,0.0,92,0.00,CLR,SKC,0.00,WeatherDisplay:10.37,2013-01-15 05:50:00,
2013-01-15 01:00:00,23.3,21.3,30.30,NE,42,0.0,0.0,92,0.00,CLR,SKC,0.00,WeatherDisplay:10.37,2013-01-15 06:00:00,
2013-01-15 01:10:00,24.2,22.2,30.30,NE,42,0.0,0.0,92,0.00,CLR,SKC,0.00,WeatherDisplay:10.37,2013-01-15 06:10:00,
2013-01-15 01:20:00,23.6,22.2,30.30,NE,42,0.0,0.0,94,0.00,CLR,SKC,0.00,WeatherDisplay:10.37,2013-01-15 06:20:00,
2013-01-15 01:30:00,23.5,22.1,30.30,NE,42,0.0,0.0,94,0.00,CLR,SKC,0.00,WeatherDisplay:10.37,2013-01-15 06:30:00,
2013-01-15 01:40:00,23.4,21.9,30.30,NE,42,0.0,0.0,94,0.00,CLR,SKC,0.00,WeatherDisplay:10.37,2013-01-15 06:40:00,
2013-01-15 01:50:00,23.1,21.9,30.30,NE,42,0.0,0.0,95,0.00,CLR,SKC,0.00,WeatherDisplay:10.37,2013-01-15 06:50:00,
2013-01-15 02:00:00,22.9,21.4,30.30,NE,42,0.0,0.0,94,0.00,CLR,SKC,0.00,WeatherDisplay:10.37,2013-01-15 07:00:00,
2013-01-15 02:10:00,23.1,21.9,30.30,NE,42,0.0,0.0,95,0.00,CLR,SKC,0.00,WeatherDisplay:10.37,2013-01-15 07:10:00,
2013-01-15 02:20:00,22.9,21.6,30.30,NE,42,0.0,0.0,95,0.00,CLR,SKC,0.00,WeatherDisplay:10.37,2013-01-15 07:20:00,
2013-01-15 02:30:00,22.8,21.6,30.30,NE,42,0.0,0.0,95,0.00,CLR,SKC,0.00,WeatherDisplay:10.37,2013-01-15 07:30:00,
2013-01-15 02:40:00,22.6,21.3,30.30,NE,42,0.0,0.0,95,0.00,CLR,SKC,0.00,WeatherDisplay:10.37,2013-01-15 07:40:00,
2013-01-15 02:50:00,22.4,21.5,30.30,NE,42,0.0,0.0,96,0.00,CLR,SKC,0.00,WeatherDisplay:10.37,2013-01-15 07:50:00,
2013-01-15 03:00:00,22.5,21.5,30.30,NE,42,0.0,0.0,96,0.00,CLR,SKC,0.00,WeatherDisplay:10.37,2013-01-15 08:00:00,
2013-01-15 03:10:00,22.0,21.0,30.30,NE,42,0.0,0.0,96,0.00,CLR,SKC,0.00,WeatherDisplay:10.37,2013-01-15 08:10:00,
2013-01-15 03:20:00,21.6,20.6,30.30,NE,42,0.0,0.0,96,0.00,CLR,SKC,0.00,WeatherDisplay:10.37,2013-01-15 08:20:00,
2013-01-15 03:30:00,21.2,20.3,30.30,NE,42,0.0,0.0,96,0.00,CLR,SKC,0.00,WeatherDisplay:10.37,2013-01-15 08:30:00,
2013-01-15 03:40:00,22.3,21.1,30.30,NE,42,0.0,0.0,95,0.00,CLR,SKC,0.00,WeatherDisplay:10.37,2013-01-15 08:40:00,
2013-01-15 03:50:00,22.3,21.1,30.30,NE,42,0.0,0.0,95,0.00,CLR,SKC,0.00,WeatherDisplay:10.37,2013-01-15 08:50:00,
2013-01-15 04:00:00,22.1,21.1,30.29,North,349,0.0,5.0,96,0.00,CLR,SKC,0.00,WeatherDisplay:10.37,2013-01-15 09:00:00,
2013-01-15 04:10:00,21.8,20.6,30.29,NNW,331,0.0,0.0,95,0.00,CLR,SKC,0.00,WeatherDisplay:10.37,2013-01-15 09:10:00,
2013-01-15 04:20:00,22.1,20.9,30.29,NNW,331,0.0,0.0,95,0.00,CLR,SKC,0.00,WeatherDisplay:10.37,2013-01-15 09:20:00,
2013-01-15 04:30:00,22.2,21.0,30.30,NNW,331,0.0,0.0,95,0.00,CLR,SKC,0.00,WeatherDisplay:10.37,2013-01-15 09:30:00,
2013-01-15 04:40:00,21.8,20.4,30.30,NNW,331,0.0,0.0,94,0.00,CLR,SKC,0.00,WeatherDisplay:10.37,2013-01-15 09:40:00,
2013-01-15 04:50:00,21.9,20.7,30.30,NNW,331,0.0,0.0,95,0.00,CLR,SKC,0.00,WeatherDisplay:10.37,2013-01-15 09:50:00,
2013-01-15 05:00:00,21.6,20.4,30.30,NNW,331,0.0,0.0,95,0.00,CLR,SKC,0.00,WeatherDisplay:10.37,2013-01-15 10:00:00,
2013-01-15 05:10:00,21.2,20.0,30.29,NNW,331,0.0,0.0,95,0.00,CLR,SKC,0.00,WeatherDisplay:10.37,2013-01-15 10:10:00,
2013-01-15 05:20:00,21.0,20.1,30.30,NNW,331,0.0,0.0,96,0.00,CLR,SKC,0.00,WeatherDisplay:10.37,2013-01-15 10:20:00,
2013-01-15 05:30:00,21.6,20.4,30.30,NNW,331,0.0,0.0,95,0.00,CLR,SKC,0.00,WeatherDisplay:10.37,2013-01-15 10:30:00,
2013-01-15 05:40:00,21.1,20.1,30.30,NNW,331,0.0,0.0,96,0.00,CLR,SKC,0.00,WeatherDisplay:10.37,2013-01-15 10:40:00,
2013-01-15 05:50:00,21.2,20.2,30.30,NNW,331,0.0,0.0,96,0.00,CLR,SKC,0.00,WeatherDisplay:10.37,2013-01-15 10:50:00,
2013-01-15 06:00:00,20.8,19.9,30.31,NNW,331,0.0,0.0,96,0.00,CLR,SKC,0.00,WeatherDisplay:10.37,2013-01-15 11:00:00,
2013-01-15 06:10:00,20.9,19.9,30.31,NNW,331,0.0,0.0,96,0.00,CLR,SKC,0.00,WeatherDisplay:10.37,2013-01-15 11:10:00,
2013-01-15 06:20:00,21.3,20.3,30.31,NNW,331,0.0,0.0,96,0.00,CLR,SKC,0.00,WeatherDisplay:10.37,2013-01-15 11:20:00,
2013-01-15 06:30:00,20.9,19.9,30.32,NNW,331,0.0,0.0,96,0.00,CLR,SKC,0.00,WeatherDisplay:10.37,2013-01-15 11:30:00,
2013-01-15 06:40:00,20.4,19.5,30.31,NNW,331,0.0,0.0,96,0.00,CLR,SKC,0.00,WeatherDisplay:10.37,2013-01-15 11:40:00,
2013-01-15 06:50:00,20.6,19.6,30.32,NNW,331,0.0,0.0,96,0.00,CLR,SKC,0.00,WeatherDisplay:10.37,2013-01-15 11:50:00,
2013-01-15 07:00:00,21.1,20.2,30.32,NNW,331,0.0,0.0,96,0.00,CLR,SKC,0.00,WeatherDisplay:10.37,2013-01-15 12:00:00,
2013-01-15 07:10:00,20.7,19.7,30.32,NNW,331,0.0,0.0,96,0.00,CLR,SKC,0.00,WeatherDisplay:10.37,2013-01-15 12:10:00,
2013-01-15 07:20:00,20.6,19.6,30.32,NNW,331,0.0,0.0,96,0.00,CLR,SKC,0.00,WeatherDisplay:10.37,2013-01-15 12:20:00,
2013-01-15 07:30:00,20.5,19.5,30.30,NNW,331,0.0,0.0,96,0.00,CLR,SKC,0.00,WeatherDisplay:10.37,2013-01-15 12:30:00,
2013-01-15 07:40:00,20.2,19.3,30.30,ENE,59,0.0,5.0,96,0.00,CLR,SKC,0.00,WeatherDisplay:10.37,2013-01-15 12:40:00,
2013-01-15 07:50:00,20.4,19.4,30.30,East,90,0.0,3.0,96,0.00,CLR,SKC,0.00,WeatherDisplay:10.37,2013-01-15 12:50:00,
2013-01-15 08:00:00,20.2,19.2,30.30,ENE,61,0.0,6.0,96,0.00,CLR,SKC,0.00,WeatherDisplay:10.37,2013-01-15 13:00:00,
2013-01-15 08:10:00,20.4,19.7,30.31,ENE,69,0.0,0.0,97,0.00,CLR,SKC,0.00,WeatherDisplay:10.37,2013-01-15 13:10:00,
2013-01-15 08:20:00,21.2,20.5,30.31,ENE,69,0.0,0.0,97,0.00,CLR,SKC,0.00,WeatherDisplay:10.37,2013-01-15 13:20:00,
2013-01-15 08:30:00,21.2,20.2,30.32,ENE,69,0.0,0.0,96,0.00,CLR,SKC,0.00,WeatherDisplay:10.37,2013-01-15 13:30:00,
2013-01-15 08:40:00,21.3,20.3,30.32,ENE,69,0.0,0.0,96,0.00,CLR,SKC,0.00,WeatherDisplay:10.37,2013-01-15 13:40:00,
2013-01-15 08:50:00,21.3,19.9,30.32,ENE,69,0.0,0.0,94,0.00,CLR,SKC,0.00,WeatherDisplay:10.37,2013-01-15 13:50:00,
2013-01-15 09:00:00,22.6,21.2,30.33,East,82,0.0,5.0,94,0.00,CLR,SKC,0.00,WeatherDisplay:10.37,2013-01-15 14:00:00,
2013-01-15 09:10:00,22.4,21.0,30.32,ENE,68,1.0,6.0,94,0.00,CLR,SKC,0.00,WeatherDisplay:10.37,2013-01-15 14:10:00,
2013-01-15 09:20:00,23.4,21.5,30.32,ESE,114,5.0,8.0,92,0.00,CLR,SKC,0.00,WeatherDisplay:10.37,2013-01-15 14:20:00,
2013-01-15 09:30:00,24.7,22.4,30.32,East,95,3.0,8.0,91,0.00,CLR,SKC,0.00,WeatherDisplay:10.37,2013-01-15 14:30:00,
2013-01-15 09:40:00,21.9,18.3,30.31,ESE,108,5.0,11.0,86,0.00,CLR,SKC,0.00,WeatherDisplay:10.37,2013-01-15 14:40:00,
2013-01-15 09:50:00,22.8,19.0,30.30,ESE,107,7.0,13.0,85,0.00,CLR,SKC,0.00,WeatherDisplay:10.37,2013-01-15 14:50:00,
2013-01-15 10:00:00,25.5,20.2,30.30,ESE,109,6.0,15.0,80,0.00,CLR,SKC,0.00,WeatherDisplay:10.37,2013-01-15 15:00:00,
2013-01-15 10:10:00,24.2,18.9,30.30,ESE,110,8.0,14.0,80,0.00,CLR,SKC,0.00,WeatherDisplay:10.37,2013-01-15 15:10:00,
2013-01-15 10:20:00,22.8,17.0,30.29,ESE,119,9.0,15.0,78,0.00,CLR,SKC,0.00,WeatherDisplay:10.37,2013-01-15 15:20:00,
2013-01-15 10:30:00,24.5,18.4,30.30,ESE,123,7.0,13.0,77,0.00,CLR,SKC,0.00,WeatherDisplay:10.37,2013-01-15 15:30:00,
2013-01-15 10:40:00,24.6,17.2,30.30,ESE,116,1.0,14.0,73,0.00,CLR,SKC,0.00,WeatherDisplay:10.37,2013-01-15 15:40:00,
2013-01-15 10:50:00,25.8,18.0,30.31,ESE,103,0.0,12.0,72,0.00,CLR,SKC,0.00,WeatherDisplay:10.37,2013-01-15 15:50:00,
2013-01-15 11:00:00,26.9,18.4,30.32,ESE,103,6.0,14.0,70,0.00,CLR,SKC,0.00,WeatherDisplay:10.37,2013-01-15 16:00:00,
2013-01-15 11:10:00,25.4,16.6,30.31,East,85,8.0,13.0,69,0.00,CLR,SKC,0.00,WeatherDisplay:10.37,2013-01-15 16:10:00,
2013-01-15 11:19:00,26.8,18.6,30.31,ESE,110,7.0,10.0,71,0.00,CLR,SKC,0.00,WeatherDisplay:10.37,2013-01-15 16:19:00,
2013-01-15 11:30:00,26.9,18.4,30.31,ESE,103,0.0,9.0,70,0.00,CLR,SKC,0.00,WeatherDisplay:10.37,2013-01-15 16:30:00,
2013-01-15 11:39:00,26.7,15.8,30.30,ESE,121,0.0,8.0,63,0.00,CLR,SKC,0.00,WeatherDisplay:10.37,2013-01-15 16:39:00,
2013-01-15 11:49:00,27.9,19.0,30.30,SE,126,7.0,10.0,69,0.00,CLR,SKC,0.00,WeatherDisplay:10.37,2013-01-15 16:49:00,
2013-01-15 11:59:00,27.2,17.7,30.29,ESE,107,0.0,7.0,67,0.00,CLR,SKC,0.00,WeatherDisplay:10.37,2013-01-15 16:59:00,
2013-01-15 12:09:00,28.0,17.0,30.28,East,95,1.0,9.0,63,0.00,CLR,SKC,0.00,WeatherDisplay:10.37,2013-01-15 17:09:00,
2013-01-15 12:19:00,27.5,18.0,30.27,East,83,0.0,12.0,67,0.00,CLR,SKC,0.00,WeatherDisplay:10.37,2013-01-15 17:19:00,
2013-01-15 12:29:00,27.8,17.5,30.24,ESE,102,7.0,13.0,65,0.00,CLR,SKC,0.00,WeatherDisplay:10.37,2013-01-15 17:29:00,
2013-01-15 12:40:00,27.2,17.7,30.23,East,89,2.0,14.0,67,0.00,CLR,SKC,0.00,WeatherDisplay:10.37,2013-01-15 17:40:00,
2013-01-15 12:50:00,28.0,17.7,30.24,East,97,5.0,11.0,65,0.00,CLR,SKC,0.00,WeatherDisplay:10.37,2013-01-15 17:50:00,
2013-01-15 13:00:00,28.0,18.5,30.24,ESE,114,6.0,13.0,67,0.00,CLR,SKC,0.00,WeatherDisplay:10.37,2013-01-15 18:00:00,
2013-01-15 13:10:00,27.6,18.1,30.25,East,83,5.0,10.0,67,0.00,CLR,SKC,0.00,WeatherDisplay:10.37,2013-01-15 18:10:00,
2013-01-15 13:20:00,29.3,19.0,30.24,East,91,6.0,10.0,65,0.00,CLR,SKC,0.00,WeatherDisplay:10.37,2013-01-15 18:20:00,
2013-01-15 13:30:00,31.1,21.1,30.23,ESE,104,0.0,10.0,66,0.00,CLR,SKC,0.00,WeatherDisplay:10.37,2013-01-15 18:30:00,
2013-01-15 13:40:00,28.7,18.0,30.22,ESE,120,9.0,13.0,64,0.00,CLR,SKC,0.00,WeatherDisplay:10.37,2013-01-15 18:40:00,
2013-01-15 13:50:00,29.4,20.4,30.21,East,97,1.0,13.0,69,0.00,CLR,SKC,0.00,WeatherDisplay:10.37,2013-01-15 18:50:00,
2013-01-15 14:00:00,28.2,18.6,30.20,ENE,78,5.0,11.0,67,0.00,CLR,SKC,0.00,WeatherDisplay:10.37,2013-01-15 19:00:00,
2013-01-15 14:10:00,29.5,19.2,30.20,ESE,104,8.0,15.0,65,0.00,CLR,SKC,0.00,WeatherDisplay:10.37,2013-01-15 19:10:00,
2013-01-15 14:20:00,29.7,18.3,30.19,ENE,78,0.0,13.0,62,0.00,CLR,SKC,0.00,WeatherDisplay:10.37,2013-01-15 19:20:00,
2013-01-15 14:30:00,28.6,19.0,30.19,East,79,3.0,12.0,67,0.00,CLR,SKC,0.00,WeatherDisplay:10.37,2013-01-15 19:30:00,
2013-01-15 14:40:00,29.6,18.5,30.19,East,93,3.0,13.0,63,0.00,CLR,SKC,0.00,WeatherDisplay:10.37,2013-01-15 19:40:00,
2013-01-15 14:50:00,30.2,19.8,30.19,ESE,111,9.0,15.0,65,0.00,CLR,SKC,0.00,WeatherDisplay:10.37,2013-01-15 19:50:00,
2013-01-15 15:00:00,30.6,20.6,30.19,ESE,110,6.0,12.0,66,0.00,CLR,SKC,0.00,WeatherDisplay:10.37,2013-01-15 20:00:00,
2013-01-15 15:10:00,29.2,20.0,30.19,East,94,5.0,12.0,68,0.00,CLR,SKC,0.00,WeatherDisplay:10.37,2013-01-15 20:10:00,
2013-01-15 15:20:00,29.8,20.5,30.19,East,87,0.0,10.0,68,0.00,CLR,SKC,0.00,WeatherDisplay:10.37,2013-01-15 20:20:00,
2013-01-15 15:30:00,29.9,20.7,30.20,ENE,77,2.0,10.0,68,0.00,CLR,SKC,0.00,WeatherDisplay:10.37,2013-01-15 20:30:00,
2013-01-15 15:40:00,29.5,19.2,30.20,East,87,6.0,10.0,65,0.00,CLR,SKC,0.00,WeatherDisplay:10.37,2013-01-15 20:40:00,
2013-01-15 15:50:00,30.0,20.4,30.19,East,91,1.0,10.0,67,0.00,CLR,SKC,0.00,WeatherDisplay:10.37,2013-01-15 20:50:00,
2013-01-15 16:00:00,29.3,20.1,30.19,ENE,74,6.0,9.0,68,0.00,CLR,SKC,0.00,WeatherDisplay:10.37,2013-01-15 21:00:00,
2013-01-15 16:10:00,29.5,20.6,30.19,NE,51,3.0,8.0,69,0.00,CLR,SKC,0.00,WeatherDisplay:10.37,2013-01-15 21:10:00,
2013-01-15 16:20:00,30.1,20.1,30.21,East,81,6.0,10.0,66,0.00,CLR,SKC,0.00,WeatherDisplay:10.37,2013-01-15 21:20:00,
2013-01-15 16:30:00,28.8,19.2,30.20,East,88,0.0,9.0,67,0.00,CLR,SKC,0.00,WeatherDisplay:10.37,2013-01-15 21:30:00,
2013-01-15 16:40:00,30.3,21.4,30.19,East,92,1.0,8.0,69,0.00,CLR,SKC,0.00,WeatherDisplay:10.37,2013-01-15 21:40:00,
2013-01-15 16:50:00,29.0,20.8,30.19,ENE,63,6.0,9.0,71,0.00,CLR,SKC,0.00,WeatherDisplay:10.37,2013-01-15 21:50:00,
2013-01-15 17:00:00,30.1,23.2,30.18,ENE,69,0.0,8.0,75,0.00,CLR,SKC,0.00,WeatherDisplay:10.37,2013-01-15 22:00:00,
2013-01-15 17:10:00,30.1,22.8,30.18,ESE,106,5.0,9.0,74,0.00,CLR,SKC,0.00,WeatherDisplay:10.37,2013-01-15 22:10:00,
2013-01-15 17:20:00,29.4,22.2,30.17,ESE,105,5.0,11.0,74,0.00,CLR,SKC,0.00,WeatherDisplay:10.37,2013-01-15 22:20:00,
2013-01-15 17:30:00,29.7,22.7,30.17,ESE,120,5.0,12.0,75,0.00,CLR,SKC,0.00,WeatherDisplay:10.37,2013-01-15 22:30:00,
2013-01-15 17:40:00,29.8,23.5,30.16,East,80,1.0,11.0,77,0.00,CLR,SKC,0.00,WeatherDisplay:10.37,2013-01-15 22:40:00,
2013-01-15 17:50:00,29.9,22.3,30.17,East,97,2.0,9.0,73,0.00,CLR,SKC,0.00,WeatherDisplay:10.37,2013-01-15 22:50:00,
2013-01-15 18:00:00,29.7,22.4,30.17,ENE,78,0.0,8.0,74,0.00,CLR,SKC,0.00,WeatherDisplay:10.37,2013-01-15 23:00:00,
2013-01-15 18:10:00,29.6,22.3,30.17,ESE,103,0.0,9.0,74,0.00,CLR,SKC,0.00,WeatherDisplay:10.37,2013-01-15 23:10:00,
2013-01-15 18:20:00,29.8,22.9,30.17,East,83,0.0,5.0,75,0.00,CLR,SKC,0.00,WeatherDisplay:10.37,2013-01-15 23:20:00,
2013-01-15 18:30:00,29.6,24.2,30.17,East,89,0.0,6.0,80,0.00,CLR,SKC,0.00,WeatherDisplay:10.37,2013-01-15 23:30:00,
2013-01-15 18:40:00,29.5,23.5,30.15,East,98,5.0,9.0,78,0.00,CLR,SKC,0.00,WeatherDisplay:10.37,2013-01-15 23:40:00,
2013-01-15 18:50:00,29.4,22.4,30.15,East,89,0.0,11.0,75,0.00,CLR,SKC,0.00,WeatherDisplay:10.37,2013-01-15 23:50:00,
2013-01-15 19:00:00,29.3,23.6,30.14,ENE,68,3.0,8.0,79,0.00,CLR,SKC,0.00,WeatherDisplay:10.37,2013-01-16 00:00:00,
2013-01-15 19:10:00,29.9,24.2,30.14,East,96,0.0,8.0,79,0.00,CLR,SKC,0.00,WeatherDisplay:10.37,2013-01-16 00:10:00,
2013-01-15 19:20:00,29.3,23.3,30.14,ENE,64,2.0,9.0,78,0.00,CLR,SKC,0.00,WeatherDisplay:10.37,2013-01-16 00:20:00,
2013-01-15 19:30:00,29.3,23.3,30.14,ENE,65,2.0,9.0,78,0.00,CLR,SKC,0.00,WeatherDisplay:10.37,2013-01-16 00:30:00,
2013-01-15 19:40:00,29.4,23.0,30.14,ENE,72,0.0,8.0,77,0.00,CLR,SKC,0.00,WeatherDisplay:10.37,2013-01-16 00:40:00,
2013-01-15 19:50:00,29.4,22.2,30.13,ENE,57,1.0,6.0,74,0.00,CLR,SKC,0.00,WeatherDisplay:10.37,2013-01-16 00:50:00,
2013-01-15 20:00:00,29.3,22.7,30.12,ENE,66,5.0,10.0,76,0.00,CLR,SKC,0.00,WeatherDisplay:10.37,2013-01-16 01:00:00,
2013-01-15 20:10:00,28.7,22.4,30.12,East,94,5.0,10.0,77,0.00,CLR,SKC,0.00,WeatherDisplay:10.37,2013-01-16 01:10:00,
2013-01-15 20:20:00,28.8,22.8,30.11,ENE,75,3.0,12.0,78,0.00,CLR,SKC,0.00,WeatherDisplay:10.37,2013-01-16 01:20:00,
2013-01-15 20:30:00,29.0,23.0,30.11,East,84,5.0,10.0,78,0.00,CLR,SKC,0.00,WeatherDisplay:10.37,2013-01-16 01:30:00,
2013-01-15 20:40:00,29.2,23.2,30.11,East,90,5.0,11.0,78,0.00,CLR,SKC,0.00,WeatherDisplay:10.37,2013-01-16 01:40:00,
2013-01-15 20:50:00,28.8,23.4,30.11,East,95,2.0,12.0,80,0.00,CLR,SKC,0.00,WeatherDisplay:10.37,2013-01-16 01:50:00,
2013-01-15 21:00:00,28.6,22.9,30.11,East,87,2.0,9.0,79,0.00,CLR,SKC,0.00,WeatherDisplay:10.37,2013-01-16 02:00:00,
2013-01-15 21:10:00,28.9,23.8,30.10,ESE,107,3.0,11.0,81,0.00,CLR,SKC,0.00,WeatherDisplay:10.37,2013-01-16 02:10:00,
2013-01-15 21:20:00,29.1,24.0,30.10,ENE,64,2.0,9.0,81,0.00,CLR,SKC,0.00,WeatherDisplay:10.37,2013-01-16 02:20:00,
2013-01-15 21:30:00,29.0,23.3,30.09,ENE,77,0.0,10.0,79,0.00,CLR,SKC,0.00,WeatherDisplay:10.37,2013-01-16 02:30:00,
2013-01-15 21:40:00,29.1,24.3,30.08,ESE,104,6.0,8.0,82,0.00,CLR,SKC,0.00,WeatherDisplay:10.37,2013-01-16 02:40:00,
2013-01-15 21:50:00,29.0,24.8,30.07,East,100,1.0,10.0,84,0.00,CLR,SKC,0.00,WeatherDisplay:10.37,2013-01-16 02:50:00,
2013-01-15 22:00:00,29.2,25.0,30.07,East,88,2.0,8.0,84,0.00,CLR,SKC,0.00,WeatherDisplay:10.37,2013-01-16 03:00:00,
2013-01-15 22:09:00,28.5,23.7,30.07,East,85,0.0,7.0,82,0.00,CLR,SKC,0.00,WeatherDisplay:10.37,2013-01-16 03:09:00,
2013-01-15 22:19:00,28.4,23.0,30.06,ESE,104,0.0,0.0,80,0.00,CLR,SKC,0.00,WeatherDisplay:10.37,2013-01-16 03:19:00,
2013-01-15 22:29:00,28.8,23.7,30.06,East,88,0.0,9.0,81,0.00,CLR,SKC,0.00,WeatherDisplay:10.37,2013-01-16 03:29:00,
2013-01-15 22:39:00,29.0,24.5,30.06,East,80,3.0,8.0,83,0.00,CLR,SKC,0.00,WeatherDisplay:10.37,2013-01-16 03:39:00,
2013-01-15 22:50:00,28.4,24.2,30.06,East,88,2.0,7.0,84,0.00,CLR,SKC,0.00,WeatherDisplay:10.37,2013-01-16 03:50:00,
2013-01-15 22:59:00,28.5,24.9,30.06,ENE,72,1.0,6.0,86,0.00,CLR,SKC,0.00,WeatherDisplay:10.37,2013-01-16 03:59:00,
2013-01-15 23:09:00,29.4,24.5,30.06,ESE,104,0.0,0.0,82,0.00,CLR,SKC,0.00,WeatherDisplay:10.37,2013-01-16 04:09:00,
2013-01-15 23:19:00,29.3,25.0,30.05,East,94,1.0,6.0,84,0.00,CLR,SKC,0.00,WeatherDisplay:10.37,2013-01-16 04:19:00,
2013-01-15 23:29:00,28.2,24.9,30.03,ENE,58,3.0,9.0,87,0.00,CLR,SKC,0.00,WeatherDisplay:10.37,2013-01-16 04:29:00,
2013-01-15 23:39:00,29.0,24.4,30.03,ENE,59,0.0,7.0,83,0.00,CLR,SKC,0.00,WeatherDisplay:10.37,2013-01-16 04:39:00,
2013-01-15 23:49:00,27.9,24.3,30.02,ENE,58,6.0,8.0,86,0.00,CLR,SKC,0.00,WeatherDisplay:10.37,2013-01-16 04:49:00,
2013-01-15 23:59:00,28.2,23.7,30.03,ENE,58,0.0,6.0,83,0.00,CLR,SKC,0.00,WeatherDisplay:10.37,2013-01-16 04:59:00,